Time;durP1;ratioP1;P1;durP2;ratioP2;P2;SDS_P1;SDS_P2;PMS_P1;PMS_P2;Temp;Humidity;BMP_temperature;BMP_pressure;BME280_temperature;BME280_humidity;BME280_pressure;Samples;Min_cycle;Max_cycle;Signal;HPM_P1;HPM_P2
2022/10/25 00:01:29;;;;;;;9.98;1.70;;;14.60;99.90;;;;;;4099982;28;20795;-92
2022/10/25 00:03:30;;;;;;;10.82;1.48;;;14.60;99.90;;;;;;4084261;28;20183;-92
2022/10/25 00:05:30;;;;;;;11.75;1.50;;;14.60;99.90;;;;;;4084277;28;20214;-92
2022/10/25 00:07:31;;;;;;;10.18;1.70;;;14.50;99.90;;;;;;4084580;28;20198;-92
2022/10/25 00:09:32;;;;;;;12.35;1.42;;;14.50;99.90;;;;;;4099992;29;20185;-95
2022/10/25 00:11:33;;;;;;;15.82;1.95;;;14.60;99.90;;;;;;4083910;29;20616;-92
2022/10/25 00:13:34;;;;;;;10.98;1.58;;;14.60;99.90;;;;;;4083715;28;20218;-93
2022/10/25 00:15:35;;;;;;;10.52;1.35;;;14.70;99.90;;;;;;4083982;28;20195;-93
2022/10/25 00:17:36;;;;;;;8.32;1.13;;;14.70;99.90;;;;;;4083898;29;20190;-91
2022/10/25 00:19:37;;;;;;;5.13;0.98;;;14.60;99.90;;;;;;4084055;29;20667;-91
2022/10/25 00:21:37;;;;;;;6.47;1.40;;;14.60;99.90;;;;;;4099975;29;20687;-92
2022/10/25 00:23:38;;;;;;;13.02;1.45;;;14.70;99.90;;;;;;4099679;29;20230;-91
2022/10/25 00:25:39;;;;;;;6.55;1.30;;;14.70;99.90;;;;;;4083765;29;20187;-92
2022/10/25 00:27:40;;;;;;;9.10;1.60;;;14.80;99.90;;;;;;4099666;28;20655;-92
2022/10/25 00:29:41;;;;;;;11.23;1.33;;;14.80;99.90;;;;;;4083874;28;20179;-94
2022/10/25 00:31:41;;;;;;;11.35;1.92;;;14.80;99.90;;;;;;4083925;29;20247;-93
2022/10/25 00:33:43;;;;;;;11.13;1.38;;;14.80;99.90;;;;;;4099741;28;20223;-91
2022/10/25 00:35:44;;;;;;;11.77;1.73;;;14.70;99.90;;;;;;4083881;29;20171;-94
2022/10/25 00:37:45;;;;;;;10.15;1.35;;;14.60;99.90;;;;;;4099490;29;20226;-92
2022/10/25 00:39:46;;;;;;;7.03;1.00;;;14.60;99.90;;;;;;4083679;29;20633;-93
2022/10/25 00:41:46;;;;;;;9.25;1.58;;;14.60;99.90;;;;;;4101214;28;20240;-91
2022/10/25 00:43:55;;;;;;;9.25;1.70;;;14.70;99.90;;;;;;4086575;29;20174;-92
2022/10/25 00:45:56;;;;;;;9.32;1.13;;;14.60;99.90;;;;;;4086733;28;20367;-92
2022/10/25 00:48:05;;;;;;;9.85;1.15;;;14.70;99.90;;;;;;4086726;29;20182;-91
2022/10/25 00:50:30;;;;;;;7.30;1.58;;;14.80;99.90;;;;;;4086659;29;20544;-93
2022/10/25 00:52:35;;;;;;;10.82;1.25;;;14.80;99.90;;;;;;4081505;29;20212;-91
2022/10/25 00:54:41;;;;;;;8.68;1.50;;;14.80;99.90;;;;;;4086439;28;20198;-93
2022/10/25 00:56:44;;;;;;;9.15;1.63;;;14.80;99.90;;;;;;4086641;28;20168;-93
2022/10/25 00:58:49;;;;;;;9.93;1.38;;;14.80;99.90;;;;;;4086443;28;20182;-93
2022/10/25 01:00:50;;;;;;;12.35;1.30;;;14.70;99.90;;;;;;4086458;28;20179;-93
2022/10/25 01:02:52;;;;;;;11.50;1.27;;;14.70;99.90;;;;;;4102150;29;20594;-91
2022/10/25 01:04:53;;;;;;;7.30;1.00;;;14.70;99.90;;;;;;4086519;28;20195;-93
2022/10/25 01:06:54;;;;;;;12.50;2.00;;;14.50;99.90;;;;;;4102440;28;20651;-93
2022/10/25 01:08:56;;;;;;;11.25;1.67;;;14.50;99.90;;;;;;4102477;28;20178;-91
2022/10/25 01:10:57;;;;;;;7.28;1.13;;;14.50;99.90;;;;;;4086399;28;20172;-93
2022/10/25 01:13:00;;;;;;;9.15;1.30;;;14.60;99.90;;;;;;4101948;29;20301;-93
2022/10/25 01:15:02;;;;;;;8.07;1.20;;;14.60;99.90;;;;;;4086248;28;20180;-93
2022/10/25 01:17:12;;;;;;;12.95;1.58;;;14.70;99.90;;;;;;4086346;28;20183;-91
2022/10/25 01:19:45;;;;;;;10.18;1.50;;;14.70;99.90;;;;;;4086105;28;20171;-93
2022/10/25 01:22:03;;;;;;;11.93;1.40;;;14.70;99.90;;;;;;4101836;28;20259;-93
2022/10/25 01:24:36;;;;;;;12.02;1.52;;;14.70;99.90;;;;;;4086057;28;20187;-93
2022/10/25 01:26:58;;;;;;;9.30;1.23;;;14.70;99.90;;;;;;4085824;28;20813;-92
2022/10/25 01:29:26;;;;;;;9.45;1.10;;;14.70;99.90;;;;;;4101682;28;20210;-93
2022/10/25 01:31:38;;;;;;;14.45;1.55;;;14.60;99.90;;;;;;4086012;28;20694;-93
2022/10/25 01:34:05;;;;;;;12.30;1.52;;;14.60;99.90;;;;;;4085996;28;20219;-92
2022/10/25 01:36:19;;;;;;;9.60;1.42;;;14.60;99.90;;;;;;4085907;28;20180;-94
2022/10/25 01:38:40;;;;;;;9.25;1.40;;;14.60;99.90;;;;;;4086025;28;20175;-92
2022/10/25 01:41:10;;;;;;;10.32;1.73;;;14.60;99.90;;;;;;4085892;28;20190;-92
2022/10/25 01:43:29;;;;;;;9.85;1.17;;;14.40;99.90;;;;;;4085695;28;20262;-92
2022/10/25 01:45:38;;;;;;;13.43;1.65;;;14.50;99.90;;;;;;4085871;28;20183;-92
2022/10/25 01:47:46;;;;;;;13.95;1.50;;;14.60;99.90;;;;;;4085882;28;20186;-93
2022/10/25 01:49:52;;;;;;;14.68;1.73;;;14.60;99.90;;;;;;4085603;28;20539;-93
2022/10/25 01:51:53;;;;;;;11.90;1.45;;;14.70;99.90;;;;;;4085255;28;20206;-92
2022/10/25 01:53:54;;;;;;;7.25;1.30;;;14.70;99.90;;;;;;4085464;28;20666;-93
2022/10/25 01:55:59;;;;;;;8.88;1.30;;;14.70;99.90;;;;;;4085541;29;20183;-93
2022/10/25 01:58:18;;;;;;;8.25;1.15;;;14.70;99.90;;;;;;4085270;29;20175;-91
2022/10/25 02:00:21;;;;;;;8.63;1.27;;;14.60;99.90;;;;;;4085849;29;20183;-91
2022/10/25 02:02:30;;;;;;;8.60;1.20;;;14.60;99.90;;;;;;4085808;29;20196;-93
2022/10/25 02:04:46;;;;;;;10.38;1.60;;;14.50;99.90;;;;;;4085848;29;20659;-92
2022/10/25 02:07:14;;;;;;;8.05;1.50;;;14.60;99.90;;;;;;4085487;29;20279;-92
2022/10/25 02:09:22;;;;;;;9.82;1.23;;;14.50;99.90;;;;;;4085752;29;20176;-92
2022/10/25 02:11:24;;;;;;;10.18;1.50;;;14.50;99.90;;;;;;4085413;29;20202;-91
2022/10/25 02:13:24;;;;;;;8.32;1.20;;;14.50;99.90;;;;;;4085167;29;20707;-93
2022/10/25 02:15:35;;;;;;;9.23;1.23;;;14.60;99.90;;;;;;4085366;28;20171;-92
2022/10/25 02:17:50;;;;;;;10.95;1.08;;;14.60;99.90;;;;;;4085341;28;20513;-92
2022/10/25 02:19:58;;;;;;;12.02;1.17;;;14.60;99.90;;;;;;4085070;28;20175;-92
2022/10/25 02:22:01;;;;;;;9.18;1.05;;;14.60;99.90;;;;;;4085124;28;20649;-92
2022/10/25 02:24:11;;;;;;;8.85;1.10;;;14.50;99.90;;;;;;4085159;28;20183;-91
2022/10/25 02:26:13;;;;;;;11.73;1.30;;;14.50;99.90;;;;;;4100745;28;20181;-92
2022/10/25 02:28:15;;;;;;;7.97;1.58;;;14.40;99.90;;;;;;4084817;28;20176;-92
2022/10/25 02:30:17;;;;;;;10.13;1.27;;;14.30;99.90;;;;;;4085055;28;20224;-92
2022/10/25 02:32:18;;;;;;;7.22;1.30;;;14.40;99.90;;;;;;4085018;28;20219;-92
2022/10/25 02:34:19;;;;;;;10.55;1.33;;;14.40;99.90;;;;;;4101051;28;20672;-91
2022/10/25 02:36:23;;;;;;;13.20;1.67;;;14.50;99.90;;;;;;4084805;28;20278;-94
2022/10/25 02:38:24;;;;;;;12.32;1.17;;;14.50;99.90;;;;;;4084584;29;20175;-93
2022/10/25 02:40:25;;;;;;;17.65;1.58;;;14.60;99.90;;;;;;4100785;29;20170;-91
2022/10/25 02:42:26;;;;;;;15.70;1.40;;;14.50;99.90;;;;;;4084866;29;20648;-92
2022/10/25 02:44:27;;;;;;;10.20;1.30;;;14.40;99.90;;;;;;4084970;29;20183;-92
2022/10/25 02:46:28;;;;;;;10.15;1.27;;;14.40;99.90;;;;;;4084778;29;20226;-92
2022/10/25 02:48:28;;;;;;;8.93;1.20;;;14.50;99.90;;;;;;4084552;29;20186;-92
2022/10/25 02:50:29;;;;;;;4.63;0.95;;;14.50;99.90;;;;;;4100697;29;20177;-91
2022/10/25 02:52:30;;;;;;;12.25;1.25;;;14.50;99.90;;;;;;4084675;29;20195;-92
2022/10/25 02:54:30;;;;;;;8.93;1.27;;;14.50;99.90;;;;;;4084703;29;20179;-92
2022/10/25 02:56:31;;;;;;;9.85;1.23;;;14.50;99.90;;;;;;4100633;29;20581;-93
2022/10/25 02:58:34;;;;;;;11.82;1.27;;;14.50;99.90;;;;;;4084742;29;20219;-92
2022/10/25 03:00:35;;;;;;;8.02;1.13;;;14.50;99.90;;;;;;4084734;29;20186;-92
2022/10/25 03:02:36;;;;;;;12.15;1.30;;;14.50;99.90;;;;;;4100566;29;20241;-93
2022/10/25 03:07:03;;;;;;;10.48;1.48;;;14.40;99.90;;;;;;4088399;29;20193;-91
2022/10/25 03:09:04;;;;;;;11.30;1.42;;;14.40;99.90;;;;;;4084633;28;20179;-93
2022/10/25 03:11:06;;;;;;;8.52;1.58;;;14.40;99.90;;;;;;4100220;28;20250;-92
2022/10/25 03:13:06;;;;;;;9.43;1.45;;;14.50;99.90;;;;;;4100088;29;20697;-93
2022/10/25 03:15:08;;;;;;;12.30;1.55;;;14.50;99.90;;;;;;4100408;28;20215;-92
2022/10/25 03:17:08;;;;;;;12.98;1.50;;;14.50;99.90;;;;;;4084653;29;20184;-93
2022/10/25 03:19:09;;;;;;;7.88;1.30;;;14.40;99.90;;;;;;4084416;29;20175;-93
2022/10/25 03:21:10;;;;;;;16.73;1.75;;;14.40;99.90;;;;;;4084536;29;20195;-93
2022/10/25 03:23:11;;;;;;;14.30;1.23;;;14.40;99.90;;;;;;4084422;29;20676;-91
2022/10/25 03:25:12;;;;;;;17.20;2.13;;;14.40;99.90;;;;;;4100260;29;20540;-92
2022/10/25 03:27:13;;;;;;;13.27;1.55;;;14.40;99.90;;;;;;4100137;29;20185;-92
2022/10/25 03:29:13;;;;;;;5.72;1.48;;;14.30;99.90;;;;;;4084331;28;20250;-92
2022/10/25 03:31:16;;;;;;;10.32;1.63;;;14.20;99.90;;;;;;4100245;29;20190;-94
2022/10/25 03:33:17;;;;;;;9.68;1.92;;;14.20;99.90;;;;;;4100325;28;20301;-93
2022/10/25 03:35:18;;;;;;;15.43;2.05;;;14.20;99.90;;;;;;4084256;28;20621;-93
2022/10/25 03:37:19;;;;;;;12.10;1.85;;;14.20;99.90;;;;;;4084225;29;20182;-92
2022/10/25 03:39:19;;;;;;;12.15;1.90;;;14.20;99.90;;;;;;4100078;29;20607;-92
2022/10/25 03:41:20;;;;;;;9.68;1.88;;;14.10;99.90;;;;;;4100141;29;20541;-92
2022/10/25 03:43:21;;;;;;;15.18;2.13;;;14.00;99.90;;;;;;4084381;28;20211;-93
2022/10/25 03:45:22;;;;;;;16.50;1.92;;;14.10;99.90;;;;;;4084142;29;20182;-92
2022/10/25 03:47:23;;;;;;;15.10;2.10;;;14.10;99.90;;;;;;4084198;29;20175;-92
2022/10/25 03:49:25;;;;;;;13.80;1.98;;;14.10;99.90;;;;;;4099786;29;20181;-93
2022/10/25 03:51:25;;;;;;;21.00;2.13;;;14.00;99.90;;;;;;4084078;29;20195;-91
2022/10/25 03:53:26;;;;;;;11.70;2.00;;;14.00;99.90;;;;;;4099901;29;20280;-94
2022/10/25 03:55:27;;;;;;;14.27;2.13;;;13.90;99.90;;;;;;4099938;29;20282;-91
2022/10/25 03:57:28;;;;;;;16.30;2.22;;;13.90;99.90;;;;;;4084372;28;20612;-91
2022/10/25 03:59:28;;;;;;;14.80;2.15;;;14.00;99.90;;;;;;4084057;29;20180;-92
2022/10/25 04:01:29;;;;;;;13.90;2.38;;;14.00;99.90;;;;;;4084047;29;20614;-91
2022/10/25 04:03:30;;;;;;;11.50;2.00;;;14.00;99.90;;;;;;4100008;29;20189;-91
2022/10/25 04:05:31;;;;;;;10.68;2.03;;;14.10;99.90;;;;;;4100003;28;20572;-92
2022/10/25 04:07:32;;;;;;;9.70;2.20;;;14.20;99.90;;;;;;4084030;29;20183;-91
2022/10/25 04:09:34;;;;;;;11.63;2.13;;;14.10;99.90;;;;;;4083742;29;20206;-92
2022/10/25 04:11:35;;;;;;;13.35;2.70;;;14.10;99.90;;;;;;4083955;29;20565;-92
2022/10/25 04:13:35;;;;;;;11.13;2.28;;;14.20;99.90;;;;;;4083813;29;20226;-92
2022/10/25 04:15:37;;;;;;;12.82;2.28;;;14.10;99.90;;;;;;4085341;29;20251;-92
2022/10/25 04:17:38;;;;;;;13.88;2.22;;;14.10;99.90;;;;;;4087187;29;20171;-92
2022/10/25 04:19:39;;;;;;;14.10;2.60;;;14.10;99.90;;;;;;4103341;29;20271;-91
2022/10/25 04:21:40;;;;;;;12.02;2.20;;;14.10;99.90;;;;;;4087192;29;20200;-92
2022/10/25 04:23:40;;;;;;;10.30;2.38;;;14.10;99.90;;;;;;4087206;28;20262;-93
2022/10/25 04:25:41;;;;;;;14.02;2.33;;;14.20;99.90;;;;;;4102784;29;20175;-93
2022/10/25 04:27:42;;;;;;;13.68;2.10;;;14.20;99.90;;;;;;4086892;29;20176;-91
2022/10/25 04:29:42;;;;;;;15.57;2.00;;;14.20;99.90;;;;;;4086870;29;20548;-91
2022/10/25 04:31:43;;;;;;;13.45;2.28;;;14.30;99.90;;;;;;4086763;29;20270;-92
2022/10/25 04:33:48;;;;;;;12.93;1.92;;;14.20;99.90;;;;;;4102486;29;20214;-91
2022/10/25 04:35:55;;;;;;;14.95;2.25;;;14.10;99.90;;;;;;4086894;29;20183;-91
2022/10/25 04:37:56;;;;;;;10.95;1.60;;;14.10;99.90;;;;;;4086808;29;20236;-94
2022/10/25 04:39:57;;;;;;;15.13;2.00;;;14.10;99.90;;;;;;4086699;29;20293;-93
2022/10/25 04:41:58;;;;;;;13.90;1.77;;;14.10;99.90;;;;;;4102646;28;20199;-91
2022/10/25 04:43:59;;;;;;;12.95;2.00;;;14.10;99.90;;;;;;4086706;29;20645;-93
2022/10/25 04:46:00;;;;;;;7.78;1.70;;;14.10;99.90;;;;;;4102666;29;20269;-92
2022/10/25 04:48:01;;;;;;;8.48;1.90;;;14.10;99.90;;;;;;4086593;29;20598;-91
2022/10/25 04:50:02;;;;;;;12.55;2.05;;;14.10;99.90;;;;;;4102470;29;20237;-92
2022/10/25 04:52:03;;;;;;;13.40;1.80;;;14.00;99.90;;;;;;4086501;29;20210;-93
2022/10/25 04:54:04;;;;;;;12.80;2.28;;;14.00;99.90;;;;;;4102382;29;20218;-94
2022/10/25 04:56:10;;;;;;;16.50;2.33;;;14.10;99.90;;;;;;4086780;29;20227;-93
2022/10/25 04:58:10;;;;;;;10.63;2.33;;;14.30;99.90;;;;;;4087164;28;20267;-92
2022/10/25 05:00:11;;;;;;;12.40;2.42;;;14.20;99.90;;;;;;4102525;29;20242;-92
2022/10/25 05:02:13;;;;;;;16.48;2.40;;;14.20;99.90;;;;;;4086554;29;20199;-91
2022/10/25 05:04:14;;;;;;;11.20;2.30;;;14.20;99.90;;;;;;4086546;28;20234;-92
2022/10/25 05:06:20;;;;;;;12.30;2.45;;;14.30;99.90;;;;;;4102435;28;20215;-93
2022/10/25 05:08:20;;;;;;;14.77;2.35;;;14.50;99.90;;;;;;4086659;28;20663;-93
2022/10/25 05:10:21;;;;;;;10.02;2.28;;;14.40;99.90;;;;;;4102224;28;20175;-91
2022/10/25 05:12:22;;;;;;;11.07;2.60;;;14.40;99.90;;;;;;4086237;29;20243;-92
2022/10/25 05:14:23;;;;;;;11.63;2.40;;;14.40;99.90;;;;;;4086212;29;20211;-92
2022/10/25 05:16:24;;;;;;;15.45;2.55;;;14.30;99.90;;;;;;4086247;29;20184;-91
2022/10/25 05:18:26;;;;;;;15.40;2.45;;;14.20;99.90;;;;;;4086257;29;20266;-94
2022/10/25 05:20:27;;;;;;;18.20;2.47;;;14.20;99.90;;;;;;4086768;29;20176;-93
2022/10/25 05:22:28;;;;;;;16.48;2.85;;;14.20;99.90;;;;;;4102161;29;20611;-94
2022/10/25 05:24:29;;;;;;;8.07;2.13;;;14.40;99.90;;;;;;4086040;29;20171;-93
2022/10/25 05:26:30;;;;;;;6.18;2.03;;;14.40;99.90;;;;;;4085768;29;20172;-92
2022/10/25 05:28:32;;;;;;;14.20;2.20;;;14.40;99.90;;;;;;4085658;29;20625;-92
2022/10/25 05:30:33;;;;;;;14.38;2.53;;;14.40;99.90;;;;;;4086156;29;20187;-94
2022/10/25 05:32:33;;;;;;;13.00;2.22;;;14.40;99.90;;;;;;4101935;28;20679;-92
2022/10/25 05:34:34;;;;;;;12.13;2.17;;;14.40;99.90;;;;;;4086070;29;20179;-92
2022/10/25 05:36:35;;;;;;;13.50;2.15;;;14.40;99.90;;;;;;4086093;28;20176;-93
2022/10/25 05:38:36;;;;;;;15.23;2.30;;;14.40;99.90;;;;;;4101729;28;20179;-92
2022/10/25 05:40:37;;;;;;;13.07;2.05;;;14.30;99.90;;;;;;4085902;29;20175;-93
2022/10/25 05:42:37;;;;;;;11.93;1.67;;;14.20;99.90;;;;;;4101710;29;20199;-93
2022/10/25 05:44:38;;;;;;;11.70;2.20;;;14.10;99.90;;;;;;4085875;29;20255;-92
2022/10/25 05:46:40;;;;;;;12.43;1.90;;;14.10;99.90;;;;;;4085930;29;20195;-92
2022/10/25 05:48:41;;;;;;;9.82;1.77;;;14.10;99.90;;;;;;4085987;29;20720;-94
2022/10/25 05:50:42;;;;;;;12.73;1.77;;;14.00;99.90;;;;;;4085974;29;20272;-92
2022/10/25 05:52:43;;;;;;;15.80;2.15;;;14.00;99.90;;;;;;4085905;29;20195;-91
2022/10/25 05:54:43;;;;;;;13.77;2.20;;;13.80;99.90;;;;;;4101920;29;20179;-91
2022/10/25 05:56:44;;;;;;;12.80;1.83;;;13.90;99.90;;;;;;4085938;29;20175;-94
2022/10/25 05:58:45;;;;;;;17.38;2.15;;;13.80;99.90;;;;;;4085801;29;20648;-94
2022/10/25 06:00:46;;;;;;;15.23;2.00;;;13.70;99.90;;;;;;4101471;28;20217;-92
2022/10/25 06:02:47;;;;;;;13.43;1.80;;;13.60;99.90;;;;;;4101407;28;20226;-92
2022/10/25 06:04:48;;;;;;;9.73;2.13;;;13.60;99.90;;;;;;4085454;29;20176;-93
2022/10/25 06:06:50;;;;;;;12.27;1.60;;;13.60;99.90;;;;;;4085562;29;20178;-92
2022/10/25 06:08:57;;;;;;;13.45;2.35;;;13.60;99.90;;;;;;4085623;29;20176;-92
2022/10/25 06:11:12;;;;;;;15.23;2.08;;;13.60;99.90;;;;;;4085536;29;20180;-91
2022/10/25 06:13:13;;;;;;;15.18;1.83;;;13.60;99.90;;;;;;4085135;29;20206;-95
2022/10/25 06:15:14;;;;;;;13.18;1.95;;;13.60;99.90;;;;;;4101036;29;20175;-94
2022/10/25 06:17:15;;;;;;;17.02;2.10;;;13.60;99.90;;;;;;4085430;29;20179;-93
2022/10/25 06:19:15;;;;;;;11.55;1.77;;;13.60;99.90;;;;;;4085284;28;20171;-92
2022/10/25 06:21:19;;;;;;;13.82;1.90;;;13.60;99.90;;;;;;4085178;29;20201;-94
2022/10/25 06:23:20;;;;;;;19.17;1.88;;;13.70;99.90;;;;;;4085119;29;20660;-92
2022/10/25 06:25:21;;;;;;;14.70;2.17;;;13.70;99.90;;;;;;4101012;29;20183;-92
2022/10/25 06:27:22;;;;;;;14.95;2.03;;;13.70;99.90;;;;;;4085110;29;20585;-95
2022/10/25 06:29:22;;;;;;;11.65;2.25;;;13.70;99.90;;;;;;4101097;29;20171;-94
2022/10/25 06:31:24;;;;;;;15.45;2.03;;;13.70;99.90;;;;;;4085028;29;20196;-92
2022/10/25 06:33:24;;;;;;;7.82;1.67;;;13.80;99.90;;;;;;4085030;29;20242;-94
2022/10/25 06:35:25;;;;;;;12.50;2.00;;;13.70;99.90;;;;;;4101019;28;20174;-92
2022/10/25 06:37:26;;;;;;;8.25;1.83;;;13.80;99.90;;;;;;4085019;29;20172;-91
2022/10/25 06:39:26;;;;;;;12.73;1.73;;;13.70;99.90;;;;;;4099824;28;20198;-92
2022/10/25 06:41:30;;;;;;;15.80;1.85;;;13.70;99.90;;;;;;4084890;29;20203;-92
2022/10/25 06:43:33;;;;;;;18.17;1.88;;;13.70;99.90;;;;;;4084989;29;20218;-90
2022/10/25 06:45:34;;;;;;;17.20;1.75;;;13.70;99.90;;;;;;4085193;29;20660;-94
2022/10/25 06:47:35;;;;;;;12.57;1.83;;;13.80;99.90;;;;;;4084957;29;20184;-93
2022/10/25 06:49:36;;;;;;;9.18;1.42;;;13.80;99.90;;;;;;4085023;29;20187;-93
2022/10/25 06:51:37;;;;;;;14.52;1.90;;;13.80;99.90;;;;;;4085033;29;20199;-93
2022/10/25 06:53:37;;;;;;;16.55;1.85;;;13.90;99.90;;;;;;4100613;29;20266;-91
2022/10/25 06:55:38;;;;;;;13.75;1.67;;;13.90;99.90;;;;;;4085167;29;20195;-94
2022/10/25 06:57:39;;;;;;;15.90;1.98;;;14.10;99.90;;;;;;4100786;29;20211;-91
2022/10/25 06:59:39;;;;;;;14.68;1.70;;;14.10;99.90;;;;;;4100647;29;20183;-91
2022/10/25 07:01:40;;;;;;;15.07;1.92;;;14.20;99.90;;;;;;4084410;29;20187;-94
2022/10/25 07:03:41;;;;;;;16.17;2.20;;;14.30;99.90;;;;;;4100656;28;20174;-92
2022/10/25 07:05:42;;;;;;;12.43;1.90;;;14.40;99.90;;;;;;4084550;29;20167;-92
2022/10/25 07:07:44;;;;;;;17.42;1.90;;;14.50;99.90;;;;;;4100574;29;20171;-93
2022/10/25 07:09:46;;;;;;;12.25;1.80;;;14.40;99.90;;;;;;4084712;29;20735;-92
2022/10/25 07:11:46;;;;;;;11.07;1.60;;;14.50;99.90;;;;;;4084454;29;20199;-92
2022/10/25 07:13:47;;;;;;;14.10;1.98;;;14.40;99.90;;;;;;4100437;29;20214;-92
2022/10/25 07:15:48;;;;;;;10.43;1.50;;;14.50;99.90;;;;;;4084738;29;20172;-92
2022/10/25 07:17:49;;;;;;;11.02;1.65;;;14.40;99.90;;;;;;4084736;29;20207;-94
2022/10/25 07:19:49;;;;;;;12.68;2.10;;;14.30;99.90;;;;;;4084654;29;20168;-92
2022/10/25 07:21:50;;;;;;;11.35;1.88;;;14.30;99.90;;;;;;4100341;28;20202;-92
2022/10/25 07:23:52;;;;;;;13.02;1.92;;;14.30;99.90;;;;;;4084611;29;20640;-93
2022/10/25 07:25:52;;;;;;;11.88;1.60;;;14.40;99.90;;;;;;4100615;28;20175;-93
2022/10/25 07:27:53;;;;;;;12.68;1.35;;;14.40;99.90;;;;;;4084296;29;20182;-91
2022/10/25 07:29:54;;;;;;;12.23;1.83;;;14.40;99.90;;;;;;4100040;28;20322;-93
2022/10/25 07:31:54;;;;;;;19.75;1.58;;;14.50;99.90;;;;;;4084603;29;20187;-93
2022/10/25 07:33:58;;;;;;;9.63;1.73;;;14.60;99.90;;;;;;4084769;29;20219;-92
2022/10/25 07:35:59;;;;;;;6.88;1.25;;;14.70;99.90;;;;;;4085459;29;20533;-92
2022/10/25 07:37:59;;;;;;;12.75;1.73;;;14.70;99.90;;;;;;4100857;29;20174;-91
2022/10/25 07:40:00;;;;;;;15.98;1.40;;;14.70;99.90;;;;;;4084929;29;20184;-92
2022/10/25 07:42:01;;;;;;;15.55;1.83;;;14.70;99.90;;;;;;4100857;28;20205;-94
2022/10/25 07:44:01;;;;;;;9.02;1.65;;;14.70;99.90;;;;;;4084737;29;20177;-94
2022/10/25 07:46:03;;;;;;;8.55;1.25;;;14.70;99.90;;;;;;4085138;29;20191;-93
2022/10/25 07:48:04;;;;;;;11.15;1.17;;;14.70;99.90;;;;;;4085691;29;20212;-92
2022/10/25 07:50:05;;;;;;;6.97;1.33;;;14.80;99.90;;;;;;4101692;28;20232;-93
2022/10/25 07:52:06;;;;;;;16.95;1.50;;;14.70;99.90;;;;;;4089156;29;20236;-94
2022/10/25 07:54:07;;;;;;;13.63;1.45;;;15.00;99.90;;;;;;4104303;29;20210;-91
2022/10/25 07:56:15;;;;;;;9.10;1.70;;;15.40;99.90;;;;;;4105186;28;20174;-92
2022/10/25 07:58:16;;;;;;;9.77;1.52;;;15.70;99.90;;;;;;4100589;28;20640;-92
2022/10/25 08:00:17;;;;;;;12.48;1.83;;;16.00;99.90;;;;;;4102415;29;20247;-93
2022/10/25 08:02:18;;;;;;;8.75;1.30;;;16.00;99.90;;;;;;4094061;29;20198;-93
2022/10/25 08:04:19;;;;;;;6.40;1.20;;;16.00;99.90;;;;;;4104273;29;20206;-91
2022/10/25 08:06:24;;;;;;;17.80;1.60;;;15.80;99.90;;;;;;4114827;28;20226;-93
2022/10/25 08:08:26;;;;;;;7.10;1.50;;;15.60;99.90;;;;;;4102936;29;20223;-91
2022/10/25 08:10:27;;;;;;;10.68;1.65;;;15.70;99.90;;;;;;4103807;28;20167;-91
2022/10/25 08:12:27;;;;;;;10.77;1.50;;;15.80;99.90;;;;;;4101048;29;20252;-90
2022/10/25 08:14:28;;;;;;;10.25;1.50;;;15.90;99.90;;;;;;4116423;28;20207;-89
2022/10/25 08:16:29;;;;;;;15.82;1.70;;;16.00;99.90;;;;;;4103245;28;20200;-92
2022/10/25 08:18:30;;;;;;;12.38;1.80;;;15.90;99.90;;;;;;4102468;28;20183;-91
2022/10/25 08:20:31;;;;;;;9.98;1.50;;;15.70;99.90;;;;;;4103360;29;20175;-92
2022/10/25 08:22:32;;;;;;;11.70;1.38;;;15.80;99.90;;;;;;4117140;28;20186;-92
2022/10/25 08:24:34;;;;;;;13.88;1.75;;;15.90;99.90;;;;;;4087936;29;20179;-92
2022/10/25 08:26:35;;;;;;;6.53;1.23;;;15.90;99.90;;;;;;4103151;29;20186;-94
2022/10/25 08:28:36;;;;;;;6.63;1.20;;;16.30;99.90;;;;;;4103134;29;20644;-93
2022/10/25 08:30:36;;;;;;;7.45;1.20;;;16.80;99.90;;;;;;4087174;29;20188;-93
2022/10/25 08:32:37;;;;;;;7.15;1.30;;;17.00;99.90;;;;;;4102730;29;20199;-93
2022/10/25 08:34:38;;;;;;;8.10;1.33;;;17.30;99.90;;;;;;4103357;29;20202;-93
2022/10/25 08:36:39;;;;;;;7.28;1.30;;;17.30;99.90;;;;;;4086846;28;20168;-92
2022/10/25 08:38:39;;;;;;;10.90;1.20;;;17.20;99.90;;;;;;4086759;29;20641;-94
2022/10/25 08:40:59;;;;;;;6.60;1.42;;;17.10;99.90;;;;;;4102974;29;20270;-92
2022/10/25 08:43:18;;;;;;;11.82;1.45;;;17.00;99.90;;;;;;4087057;29;20219;-94
2022/10/25 08:45:32;;;;;;;9.48;1.08;;;17.30;99.90;;;;;;4087155;29;20183;-92
2022/10/25 08:47:42;;;;;;;9.85;1.38;;;17.70;99.90;;;;;;4086985;29;20182;-93
2022/10/25 08:49:54;;;;;;;5.03;1.00;;;17.90;99.90;;;;;;4087261;29;20175;-93
2022/10/25 08:52:03;;;;;;;9.50;1.40;;;18.10;99.90;;;;;;4086819;29;20203;-94
2022/10/25 08:54:22;;;;;;;8.90;1.10;;;18.10;99.90;;;;;;4087005;29;20210;-93
2022/10/25 08:56:24;;;;;;;7.72;1.10;;;18.00;99.90;;;;;;4086594;29;20221;-94
2022/10/25 08:58:39;;;;;;;7.88;1.30;;;18.20;99.90;;;;;;4086690;29;20262;-91
2022/10/25 09:00:56;;;;;;;6.28;1.40;;;18.20;99.90;;;;;;4086861;29;20175;-94
2022/10/25 09:02:59;;;;;;;10.48;1.35;;;18.00;99.90;;;;;;4085672;29;20175;-92
2022/10/25 09:05:22;;;;;;;7.47;1.17;;;18.00;99.90;;;;;;4086936;29;20171;-94
2022/10/25 09:07:35;;;;;;;8.25;1.02;;;17.80;99.90;;;;;;4086845;29;20181;-93
2022/10/25 09:09:52;;;;;;;9.63;1.52;;;17.80;99.90;;;;;;4086200;28;20234;-94
2022/10/25 09:12:03;;;;;;;11.98;1.60;;;17.70;99.90;;;;;;4087052;28;20239;-93
2022/10/25 09:14:28;;;;;;;8.40;1.13;;;17.60;99.90;;;;;;4103160;28;20222;-93
2022/10/25 09:16:51;;;;;;;7.68;1.20;;;17.70;99.90;;;;;;4096807;28;20207;-92
2022/10/25 09:18:55;;;;;;;11.20;1.65;;;17.90;99.90;;;;;;4089173;28;20541;-94
2022/10/25 09:20:58;;;;;;;10.57;1.40;;;18.20;99.90;;;;;;4086165;28;20190;-93
2022/10/25 09:23:22;;;;;;;9.40;1.20;;;18.30;99.90;;;;;;4086422;28;20199;-94
2022/10/25 09:25:30;;;;;;;9.27;1.38;;;18.50;99.90;;;;;;4086544;28;20188;-93
2022/10/25 09:27:44;;;;;;;10.98;1.35;;;18.60;99.90;;;;;;4086270;29;20182;-92
2022/10/25 09:30:14;;;;;;;9.98;1.40;;;18.30;99.90;;;;;;4086285;28;20229;-93
2022/10/25 09:32:28;;;;;;;9.60;1.65;;;17.90;99.90;;;;;;4083226;29;20672;-94
2022/10/25 09:34:34;;;;;;;10.98;1.60;;;17.60;99.90;;;;;;4086622;28;20215;-92
2022/10/25 09:36:44;;;;;;;11.60;1.90;;;17.60;99.90;;;;;;4086395;29;20179;-93
2022/10/25 09:38:58;;;;;;;10.07;1.30;;;17.70;99.90;;;;;;4086169;29;20767;-94
2022/10/25 09:41:08;;;;;;;9.38;1.55;;;17.70;99.90;;;;;;4086079;29;20275;-93
2022/10/25 09:43:17;;;;;;;9.35;1.27;;;17.60;99.90;;;;;;4086166;29;20183;-92
2022/10/25 09:45:26;;;;;;;8.70;1.30;;;17.50;99.90;;;;;;4086135;29;20676;-93
2022/10/25 09:47:48;;;;;;;11.63;1.15;;;17.30;99.90;;;;;;4086631;29;20186;-92
2022/10/25 09:50:02;;;;;;;10.32;1.55;;;17.20;99.90;;;;;;4086031;29;20175;-93
2022/10/25 09:52:05;;;;;;;8.75;1.65;;;17.30;99.90;;;;;;4086238;29;20198;-93
2022/10/25 09:54:22;;;;;;;12.52;1.73;;;17.10;99.90;;;;;;4102414;28;20314;-94
2022/10/25 09:56:23;;;;;;;6.18;1.13;;;17.10;99.90;;;;;;4102468;29;20179;-92
2022/10/25 09:58:26;;;;;;;14.10;1.40;;;17.20;99.90;;;;;;4087082;29;20171;-93
2022/10/25 10:00:36;;;;;;;7.65;1.40;;;17.20;99.90;;;;;;4087165;28;20187;-93
2022/10/25 10:02:38;;;;;;;6.57;1.23;;;17.30;99.90;;;;;;4086255;28;20202;-94
2022/10/25 10:04:38;;;;;;;7.38;1.40;;;17.20;99.90;;;;;;4086300;28;20199;-94
2022/10/25 10:06:39;;;;;;;10.45;1.58;;;17.30;99.90;;;;;;4101678;28;20192;-92
2022/10/25 10:08:47;;;;;;;10.52;1.35;;;17.30;99.90;;;;;;4086894;29;20171;-94
2022/10/25 10:10:52;;;;;;;7.78;1.05;;;17.50;99.90;;;;;;4096570;28;20231;-93
2022/10/25 10:13:11;;;;;;;6.72;1.20;;;17.50;99.90;;;;;;4101586;28;20680;-91
2022/10/25 10:15:37;;;;;;;10.07;1.30;;;17.50;99.90;;;;;;4101764;29;20180;-93
2022/10/25 10:17:38;;;;;;;7.85;1.58;;;17.60;99.90;;;;;;4100557;29;20184;-94
2022/10/25 10:19:40;;;;;;;10.25;1.48;;;17.50;99.90;;;;;;4100100;29;20188;-91
2022/10/25 10:21:43;;;;;;;9.45;1.30;;;17.50;99.90;;;;;;4100796;29;20223;-91
2022/10/25 10:23:50;;;;;;;10.23;1.52;;;17.40;99.90;;;;;;4115787;29;20171;-92
2022/10/25 10:25:52;;;;;;;9.73;1.60;;;17.30;99.90;;;;;;4117617;29;20166;-92
2022/10/25 10:27:58;;;;;;;7.65;1.42;;;17.20;99.90;;;;;;4101709;29;20183;-92
2022/10/25 10:30:08;;;;;;;8.32;1.10;;;17.20;99.90;;;;;;4100486;29;20180;-93
2022/10/25 10:32:30;;;;;;;12.70;1.52;;;17.30;99.90;;;;;;4100616;29;20223;-92
2022/10/25 10:34:37;;;;;;;9.60;1.30;;;17.50;99.90;;;;;;4089677;29;20274;-93
2022/10/25 10:36:44;;;;;;;9.48;1.40;;;17.60;99.90;;;;;;4086442;29;20188;-94
2022/10/25 10:38:51;;;;;;;4.93;1.02;;;17.60;99.90;;;;;;4086893;29;20179;-93
2022/10/25 10:41:12;;;;;;;9.75;1.42;;;17.30;99.90;;;;;;4085157;29;20180;-92
2022/10/25 10:46:09;;;;;;;9.25;1.52;;;17.60;99.90;;;;;;4101128;29;20230;-93
2022/10/25 10:48:19;;;;;;;7.57;1.25;;;17.90;99.90;;;;;;4085296;28;20175;-94